首页
METAR-TAF:

METAR-TAF

机场 :

Skiathos, 希腊

纬度: 39-11N, 经度: 023-30E, 海拔: 15米

当前天气观测

该预报发布于28分钟前的07:50 UTC
静风
温度 15°C
湿度 88%
气压 1016 hPa
能见度10公里或以上
少量云层高于2000英尺

METAR: LGSK 200750Z 00000KT 9999 FEW020 15/13 Q1016

时间: 10:18 (08:18 UTC)

预报

该预报发布于3小时和18分钟前的05:00 UTC
预报有效从20日的 06点(UTC)到 20日的 15点(UTC)
风速8节,风向东南
能见度10公里或以上
少量云层高于2000英尺

TAF: LGSK 200500Z 2006/2015 14008KT 9999 FEW020

超过4000个机场的气象观测和天气预报(METAR&TAF报告)。

可查询的气象台以黄色和红色小点在地图上表示。

将鼠标移到小点上方,可查看气象台名称。

然后点击查看天气观测和预报。

如需切换地图:点击带黑十字的绿色按钮放大地图;点击带横线的绿色按钮缩小地图;或者点击绿色箭头查看邻近地区的地图。


METAR-TAF: